Zana — S5P3759 — position and weather

sailwx.info

Track history (hours):
 
Tides and Currents Weather Stations Pressure Air Temp Water Temp Dewpoint Dewpoint Depression Visibility Wind Speed Wind Dir Waves Ship Positions

Zana

Last reported at 2017-Nov-03 23:48 UTC. Time now 2017-Nov-22 20:32 UTC.
Position N 27°49' W 015°15'.
Warning: this ship's position is 18 days out of date.

Length 15 m.

Type: Sailing vessel. MMSI: 278750000.

Date/timePositionNaut miles runAvg speedWind from/ knotsBaromVisibWave heightAir tempDewpointWater temp
2017-Nov-03 23:48N 27°49' W 015°15'1 4.8
2017-Nov-03 23:30N 27°49' W 015°14'2 4.0
2017-Nov-03 23:00N 27°51' W 015°14'2 4.7
2017-Nov-03 22:30N 27°54' W 015°15'2 4.5
2017-Nov-03 22:00N 27°56' W 015°16'2 4.3
2017-Nov-03 21:29N 27°58' W 015°17'2 4.4
2017-Nov-03 20:58N 27°60' W 015°19'2 4.2
2017-Nov-03 20:28N 28°01' W 015°20'2 4.1
2017-Nov-03 19:58N 28°03' W 015°21'2 4.4
2017-Nov-03 19:28N 28°05' W 015°23'2 3.7
2017-Nov-03 18:57N 28°06' W 015°24'  
2017-Oct-31 08:11N 28°08' W 015°25'0 1.0
2017-Oct-31 08:00N 28°08' W 015°25'0 0.0
2017-Oct-29 16:56N 28°08' W 015°25'0 0.0
2017-Oct-29 16:26N 28°08' W 015°25'0 0.0
2017-Oct-29 15:53N 28°08' W 015°25'0 0.0
2017-Oct-29 15:26N 28°08' W 015°25'0 0.0
2017-Oct-29 11:05N 28°08' W 015°25'0 0.0
2017-Oct-29 10:41N 28°08' W 015°25'0 0.1
2017-Oct-29 10:15N 28°08' W 015°25'1 4.9
2017-Oct-29 10:00N 28°07' W 015°24'4 6.5
2017-Oct-29 09:26N 28°11' W 015°23'3 6.6
2017-Oct-29 08:58N 28°13' W 015°21'3 6.0
2017-Oct-29 08:28N 28°15' W 015°18'2 4.3
2017-Oct-29 07:58N 28°16' W 015°16'2 4.7
2017-Oct-29 07:27N 28°17' W 015°14'2 4.9
2017-Oct-29 06:57N 28°18' W 015°11'2 5.5
2017-Oct-29 06:30N 28°19' W 015°08'3 5.2
2017-Oct-29 06:00N 28°20' W 015°06'3 5.7
2017-Oct-29 05:27N 28°21' W 015°03'4 6.2
2017-Oct-29 04:52N 28°23' W 014°59'4 6.0
2017-Oct-29 04:12N 28°24' W 014°54'1 5.9
2017-Oct-29 04:00N 28°24' W 014°53'65 3.9
2017-Oct-28 11:13N 29°01' W 013°52'0 1.7
2017-Oct-28 10:59N 29°02' W 013°52'1 2.9
2017-Oct-28 10:29N 29°03' W 013°51'11 3.9
2017-Oct-28 07:46N 29°13' W 013°46'1 5.1
2017-Oct-28 07:28N 29°14' W 013°46'2 4.9
2017-Oct-28 06:58N 29°16' W 013°44'2 4.4
2017-Oct-28 06:25N 29°18' W 013°42'8 4.5
2017-Oct-28 04:42N 29°23' W 013°35'1 4.8
2017-Oct-28 04:30N 29°23' W 013°34'3 5.7
2017-Oct-28 03:54N 29°26' W 013°31'  
Track history (hours):
 
Tides and Currents Weather Stations Pressure Air Temp Water Temp Dewpoint Dewpoint Depression Visibility Wind Speed Wind Dir Waves Ship Positions

Zana

Last reported at 2017-Nov-03 23:48 UTC. Time now 2017-Nov-22 20:32 UTC.
Position N 27°49' W 015°15'.
Warning: this ship's position is 18 days out of date.

Length 15 m.

Type: Sailing vessel. MMSI: 278750000.

Date/timePositionNaut miles runAvg speedWind from/ knotsBaromVisibWave heightAir tempDewpointWater temp
2017-Nov-03 23:48N 27°49' W 015°15'1 4.8
2017-Nov-03 23:30N 27°49' W 015°14'2 4.0
2017-Nov-03 23:00N 27°51' W 015°14'2 4.7
2017-Nov-03 22:30N 27°54' W 015°15'2 4.5
2017-Nov-03 22:00N 27°56' W 015°16'2 4.3
2017-Nov-03 21:29N 27°58' W 015°17'2 4.4
2017-Nov-03 20:58N 27°60' W 015°19'2 4.2
2017-Nov-03 20:28N 28°01' W 015°20'2 4.1
2017-Nov-03 19:58N 28°03' W 015°21'2 4.4
2017-Nov-03 19:28N 28°05' W 015°23'2 3.7
2017-Nov-03 18:57N 28°06' W 015°24'  
2017-Oct-31 08:11N 28°08' W 015°25'0 1.0
2017-Oct-31 08:00N 28°08' W 015°25'0 0.0
2017-Oct-29 16:56N 28°08' W 015°25'0 0.0
2017-Oct-29 16:26N 28°08' W 015°25'0 0.0
2017-Oct-29 15:53N 28°08' W 015°25'0 0.0
2017-Oct-29 15:26N 28°08' W 015°25'0 0.0
2017-Oct-29 11:05N 28°08' W 015°25'0 0.0
2017-Oct-29 10:41N 28°08' W 015°25'0 0.1
2017-Oct-29 10:15N 28°08' W 015°25'1 4.9
2017-Oct-29 10:00N 28°07' W 015°24'4 6.5
2017-Oct-29 09:26N 28°11' W 015°23'3 6.6
2017-Oct-29 08:58N 28°13' W 015°21'3 6.0
2017-Oct-29 08:28N 28°15' W 015°18'2 4.3
2017-Oct-29 07:58N 28°16' W 015°16'2 4.7
2017-Oct-29 07:27N 28°17' W 015°14'2 4.9
2017-Oct-29 06:57N 28°18' W 015°11'2 5.5
2017-Oct-29 06:30N 28°19' W 015°08'3 5.2
2017-Oct-29 06:00N 28°20' W 015°06'3 5.7
2017-Oct-29 05:27N 28°21' W 015°03'4 6.2
2017-Oct-29 04:52N 28°23' W 014°59'4 6.0
2017-Oct-29 04:12N 28°24' W 014°54'1 5.9
2017-Oct-29 04:00N 28°24' W 014°53'65 3.9
2017-Oct-28 11:13N 29°01' W 013°52'0 1.7
2017-Oct-28 10:59N 29°02' W 013°52'1 2.9
2017-Oct-28 10:29N 29°03' W 013°51'11 3.9
2017-Oct-28 07:46N 29°13' W 013°46'1 5.1
2017-Oct-28 07:28N 29°14' W 013°46'2 4.9
2017-Oct-28 06:58N 29°16' W 013°44'2 4.4
2017-Oct-28 06:25N 29°18' W 013°42'8 4.5
2017-Oct-28 04:42N 29°23' W 013°35'1 4.8
2017-Oct-28 04:30N 29°23' W 013°34'3 5.7
2017-Oct-28 03:54N 29°26' W 013°31'  

Dump ship's entire track history